Alida, Minnesota
Current Conditions -  °F | °C
As of 8:33 AM on Wednesday 22 Oct 2014 (Local Time) from KBJI Reporting Station
Clear Clear  
Wind Chill:   Ceiling: Unl
Heat Index:   Visibility: 10mi
Dew Point:   Wind: 14mph
Humidity: 76%   Direction: 150°SSE
Pressure: 29.98"   Gusts: 22mph
Location:  47.4609°N, 95.2384°W
Report Text: KBJI 221333Z AUTO 15012G19KT 10SM CLR 08/04 A2998 RMK AO2 T00750036
Loading
Personal Weather Stations






























Interactive Weather Map
Tropical Storm Tracking
New forecast layout! Learn more

10-Day Weather Forecast

Advertisements
Track Severe Weather on mobile